This is the latest recevied weather packets stored in our database for station/object KJ6MZH-1. If no packets are shown the sender has not sent any weather packets the latest 10 day(s).
| Time | Temp. | Humidity | Pressure | Rain* | Wind** | Luminosity | Snow |
|---|---|---|---|---|---|---|---|
| 1788696075 | 20.56° C | 57% | 1011.5 hPa | 0 mm | 0 m/s | - | - |
| 1788695175 | 20.56° C | 59% | 1011.6 hPa | 0 mm | 0 m/s | - | - |
| 1788694275 | 20.56° C | 59% | 1011.6 hPa | 0 mm | 0 m/s | - | - |
| 1788693375 | 21.11° C | 55% | 1011.6 hPa | 0 mm | 0 m/s | - | - |
| 1788692475 | 21.67° C | 54% | 1011.6 hPa | 0 mm | 0 m/s | - | - |
| 1788691575 | 22.22° C | 53% | 1011.6 hPa | 0 mm | 0 m/s | - | - |
| 1788690675 | 22.22° C | 53% | 1011.5 hPa | 0 mm | 0 m/s | - | - |
| 1788689774 | 21.11° C | 56% | 1011.6 hPa | 0 mm | 0 m/s | - | - |
| 1788688874 | 21.11° C | 58% | 1011.6 hPa | 0 mm | 0 m/s | - | - |
| 1788687974 | 21.11° C | 57% | 1011.3 hPa | 0 mm | 0 m/s | - | - |
| 1788687074 | 21.67° C | 58% | 1011.1 hPa | 0 mm | 0 m/s | - | - |
| 1788686174 | 22.22° C | 53% | 1011.1 hPa | 0 mm | 0 m/s | - | - |
| 1788685274 | 21.67° C | 55% | 1011.2 hPa | 0 mm | 0 m/s | - | - |
| 1788684374 | 21.67° C | 55% | 1011.2 hPa | 0 mm | 0 m/s | - | - |
| 1788683474 | 21.67° C | 56% | 1011.3 hPa | 0 mm | 0 m/s | - | - |
| 1788682574 | 21.11° C | 56% | 1011.5 hPa | 0 mm | 0 m/s | - | - |
| 1788681674 | 21.11° C | 56% | 1011.6 hPa | 0 mm | 0 m/s | - | - |
| 1788680774 | 21.67° C | 56% | 1011.6 hPa | 0 mm | 0 m/s | - | - |
| 1788679874 | 21.67° C | 54% | 1011.6 hPa | 0 mm | 0 m/s | - | - |
| 1788678974 | 21.67° C | 53% | 1011.6 hPa | 0 mm | 0 m/s | - | - |
| 1788678074 | 21.67° C | 54% | 1011.7 hPa | 0 mm | 0 m/s | - | - |
| 1788677174 | 22.22° C | 54% | 1011.7 hPa | 0 mm | 0 m/s | - | - |
| 1788676274 | 22.78° C | 54% | 1011.8 hPa | 0 mm | 0 m/s | - | - |
| 1788675374 | 22.78° C | 51% | 1011.5 hPa | 0 mm | 0 m/s | - | - |
| 1788674474 | 23.33° C | 49% | 1011.5 hPa | 0 mm | 0 m/s | - | - |
* Rain latest hour (hover to see other rain measurements)
** Current wind speed in m/s (hover to see current wind gust speed)